Time;durP1;ratioP1;P1;durP2;ratioP2;P2;SDS_P1;SDS_P2;PMS_P1;PMS_P2;Temp;Humidity;BMP_temperature;BMP_pressure;BME280_temperature;BME280_humidity;BME280_pressure;Samples;Min_cycle;Max_cycle;Signal;HPM_P1;HPM_P2
2023/09/11 00:00:59;;;;;;;37.75;29.15;;;20.70;99.90;;;;;;5003793;28;20042;-56
2023/09/11 00:03:24;;;;;;;33.70;28.50;;;20.70;99.90;;;;;;5003840;28;20161;-56
2023/09/11 00:05:50;;;;;;;35.83;29.13;;;20.70;99.90;;;;;;5003354;28;20120;-57
2023/09/11 00:08:16;;;;;;;33.72;28.92;;;20.60;99.90;;;;;;5002199;28;20053;-57
2023/09/11 00:10:41;;;;;;;32.92;29.20;;;20.70;99.90;;;;;;5003853;28;20064;-57
2023/09/11 00:13:07;;;;;;;36.85;31.13;;;20.50;99.90;;;;;;5002668;28;20401;-57
2023/09/11 00:15:34;;;;;;;35.25;29.52;;;20.50;99.90;;;;;;5003774;28;20045;-59
2023/09/11 00:18:00;;;;;;;33.42;28.77;;;20.40;99.90;;;;;;5002354;28;20045;-57
2023/09/11 00:20:27;;;;;;;35.13;30.27;;;20.40;99.90;;;;;;5003615;28;20052;-57
2023/09/11 00:22:52;;;;;;;34.17;30.48;;;20.50;99.90;;;;;;5003660;28;20094;-57
2023/09/11 00:25:18;;;;;;;34.53;30.63;;;20.40;99.90;;;;;;5002356;28;20046;-57
2023/09/11 00:27:44;;;;;;;36.67;29.77;;;20.40;99.90;;;;;;5003201;28;20476;-56
2023/09/11 00:30:10;;;;;;;32.78;29.20;;;20.40;99.90;;;;;;5000995;28;20050;-57
2023/09/11 00:32:36;;;;;;;32.65;29.23;;;20.30;99.90;;;;;;5002327;28;20038;-56
2023/09/11 00:35:02;;;;;;;33.08;29.05;;;20.40;99.90;;;;;;5002379;28;20046;-57
2023/09/11 00:37:27;;;;;;;33.25;29.45;;;20.30;99.90;;;;;;5004610;28;20116;-56
2023/09/11 00:39:53;;;;;;;36.35;29.45;;;20.30;99.90;;;;;;5003065;28;20077;-57
2023/09/11 00:42:19;;;;;;;31.55;28.13;;;20.20;99.90;;;;;;5003068;28;20127;-57
2023/09/11 00:44:44;;;;;;;32.15;28.60;;;20.20;99.90;;;;;;5000746;28;20100;-57
2023/09/11 00:47:10;;;;;;;31.77;27.88;;;20.20;99.90;;;;;;5003487;28;20104;-56
2023/09/11 00:49:37;;;;;;;34.83;28.48;;;20.20;99.90;;;;;;5002974;28;20038;-57
2023/09/11 00:52:03;;;;;;;40.95;29.52;;;20.20;99.90;;;;;;5002708;28;20045;-56
2023/09/11 00:54:28;;;;;;;33.25;28.20;;;20.20;99.90;;;;;;5003412;28;20037;-56
2023/09/11 00:56:56;;;;;;;34.95;28.98;;;20.10;99.90;;;;;;4991786;28;20617;-57
2023/09/11 00:59:21;;;;;;;34.63;27.90;;;20.10;99.90;;;;;;5002561;28;20500;-57
2023/09/11 01:01:48;;;;;;;32.95;28.80;;;20.00;99.90;;;;;;5002384;28;20048;-57
2023/09/11 01:04:15;;;;;;;32.97;27.35;;;20.10;99.90;;;;;;5002638;28;20104;-57
2023/09/11 01:06:40;;;;;;;33.20;27.88;;;20.10;99.90;;;;;;5002559;28;20509;-55
2023/09/11 01:09:06;;;;;;;35.65;26.58;;;20.10;99.90;;;;;;5002273;28;20084;-57
2023/09/11 01:11:32;;;;;;;31.13;27.55;;;20.00;99.90;;;;;;5001961;28;20439;-57
2023/09/11 01:13:58;;;;;;;31.10;27.70;;;20.00;99.90;;;;;;5070285;23;20073;-60
2023/09/11 01:16:34;;;;;;;32.10;26.58;;;20.00;99.90;;;;;;5004542;28;20115;-61
2023/09/11 01:19:31;;;;;;;32.83;27.65;;;20.00;99.90;;;;;;5005558;28;20038;-61
2023/09/11 01:22:08;;;;;;;28.92;25.83;;;20.00;99.90;;;;;;5005796;28;20053;-58
2023/09/11 01:24:50;;;;;;;31.92;26.17;;;20.00;99.90;;;;;;5006109;28;20474;-59
2023/09/11 01:27:31;;;;;;;32.05;26.02;;;20.00;99.90;;;;;;5006785;28;20046;-62
2023/09/11 01:29:58;;;;;;;33.72;26.25;;;19.90;99.90;;;;;;5006491;28;20060;-58
2023/09/11 01:32:25;;;;;;;28.38;25.38;;;19.90;99.90;;;;;;5006182;28;20058;-61
2023/09/11 01:34:51;;;;;;;30.95;26.90;;;19.90;99.90;;;;;;5005588;28;20092;-57
2023/09/11 01:37:17;;;;;;;29.80;26.20;;;19.80;99.90;;;;;;4993841;28;20046;-61
2023/09/11 01:39:43;;;;;;;29.38;25.08;;;19.90;99.90;;;;;;5000708;28;20064;-57
2023/09/11 01:42:13;;;;;;;28.65;25.42;;;19.90;99.90;;;;;;5005628;28;20038;-59
2023/09/11 01:44:44;;;;;;;33.17;25.70;;;19.80;99.90;;;;;;5005400;28;20045;-61
2023/09/11 01:47:17;;;;;;;34.08;26.00;;;19.80;99.90;;;;;;5006050;28;20814;-62
2023/09/11 01:49:44;;;;;;;33.17;26.48;;;19.80;99.90;;;;;;5004689;28;20034;-62
2023/09/11 01:52:11;;;;;;;30.65;26.15;;;19.80;99.90;;;;;;5005413;28;20404;-60
2023/09/11 01:54:37;;;;;;;32.78;26.70;;;19.80;99.90;;;;;;5005093;28;20419;-61
2023/09/11 01:57:05;;;;;;;32.92;26.00;;;19.80;99.90;;;;;;4997109;28;20451;-55
2023/09/11 01:59:31;;;;;;;33.40;25.52;;;19.70;99.90;;;;;;5001201;28;20451;-61
2023/09/11 02:01:56;;;;;;;30.38;24.92;;;19.70;99.90;;;;;;4999937;28;20067;-61
2023/09/11 02:04:22;;;;;;;31.10;25.23;;;19.70;99.90;;;;;;5005590;28;20045;-59
2023/09/11 02:06:48;;;;;;;30.20;25.55;;;19.70;99.90;;;;;;5004675;28;20061;-59
2023/09/11 02:09:13;;;;;;;32.72;25.98;;;19.80;99.90;;;;;;5006318;28;20058;-59
2023/09/11 02:11:39;;;;;;;27.30;24.48;;;19.70;99.90;;;;;;5005707;28;20133;-61
2023/09/11 02:14:05;;;;;;;31.95;25.52;;;19.70;99.90;;;;;;5005006;28;20058;-58
2023/09/11 02:16:31;;;;;;;32.13;25.58;;;19.70;99.90;;;;;;5005415;28;20122;-55
2023/09/11 02:18:56;;;;;;;33.35;25.27;;;19.60;99.90;;;;;;5005006;28;20065;-56
2023/09/11 02:21:22;;;;;;;27.30;23.95;;;19.60;99.90;;;;;;5005396;28;20042;-62
2023/09/11 02:23:47;;;;;;;29.70;24.90;;;19.50;99.90;;;;;;5003065;28;20108;-55
2023/09/11 02:26:13;;;;;;;30.17;24.42;;;19.60;99.90;;;;;;5004379;28;20045;-62
2023/09/11 02:28:40;;;;;;;31.45;24.25;;;19.60;99.90;;;;;;5005540;28;20673;-57
2023/09/11 02:31:05;;;;;;;26.77;23.98;;;19.60;99.90;;;;;;5005366;28;20050;-60
2023/09/11 02:33:31;;;;;;;28.00;25.00;;;19.50;99.90;;;;;;5004293;28;20053;-62
2023/09/11 02:35:57;;;;;;;31.70;23.55;;;19.50;99.90;;;;;;5003403;28;20088;-60
2023/09/11 02:38:23;;;;;;;30.67;24.25;;;19.50;99.90;;;;;;5005485;28;20061;-61
2023/09/11 02:40:49;;;;;;;28.08;23.23;;;19.50;99.90;;;;;;5004035;28;20113;-59
2023/09/11 02:43:15;;;;;;;28.58;23.70;;;19.50;99.90;;;;;;5003761;28;20053;-62
2023/09/11 02:45:43;;;;;;;29.58;22.88;;;19.50;99.90;;;;;;5004360;28;20488;-55
2023/09/11 02:48:08;;;;;;;32.05;23.33;;;19.50;99.90;;;;;;5004933;28;20053;-55
2023/09/11 02:50:34;;;;;;;25.55;22.83;;;19.40;99.90;;;;;;4985817;28;20387;-59
2023/09/11 02:53:00;;;;;;;29.65;22.92;;;19.50;99.90;;;;;;5005243;28;20049;-61
2023/09/11 02:55:26;;;;;;;28.38;23.35;;;19.50;99.90;;;;;;4999211;28;20058;-58
2023/09/11 02:57:51;;;;;;;25.55;22.67;;;19.40;99.90;;;;;;4993522;28;20046;-60
2023/09/11 03:00:17;;;;;;;27.15;24.08;;;19.40;99.90;;;;;;4983936;28;20451;-60
2023/09/11 03:02:42;;;;;;;33.60;23.08;;;19.50;99.90;;;;;;4984776;28;20532;-61
2023/09/11 03:05:08;;;;;;;27.45;22.65;;;19.30;99.90;;;;;;4984815;28;20042;-61
2023/09/11 03:07:34;;;;;;;25.50;22.67;;;19.30;99.90;;;;;;4984378;28;20435;-60
2023/09/11 03:10:01;;;;;;;25.38;21.63;;;19.40;99.90;;;;;;4984654;28;20046;-61
2023/09/11 03:12:29;;;;;;;26.48;21.30;;;19.40;99.90;;;;;;4984942;28;20646;-60
2023/09/11 03:14:54;;;;;;;28.95;21.90;;;19.50;99.90;;;;;;4983086;28;20050;-61
2023/09/11 03:17:20;;;;;;;24.80;21.08;;;19.40;99.90;;;;;;4984667;28;20061;-59
2023/09/11 03:19:46;;;;;;;25.38;21.67;;;19.40;99.90;;;;;;4984743;28;20053;-62
2023/09/11 03:22:12;;;;;;;28.70;21.23;;;19.40;99.90;;;;;;4985426;28;20087;-61
2023/09/11 03:24:37;;;;;;;24.17;21.23;;;19.40;99.90;;;;;;4983659;28;20181;-57
2023/09/11 03:27:03;;;;;;;27.63;21.65;;;19.30;99.90;;;;;;4985501;28;20038;-56
2023/09/11 03:29:29;;;;;;;31.52;22.55;;;19.40;99.90;;;;;;4984670;28;20686;-60
2023/09/11 03:31:54;;;;;;;28.77;21.63;;;19.40;99.90;;;;;;4985229;28;20053;-62
2023/09/11 03:34:20;;;;;;;24.88;21.92;;;19.30;99.90;;;;;;4984347;28;20053;-60
2023/09/11 03:36:45;;;;;;;33.78;21.88;;;19.30;99.90;;;;;;4985190;28;20381;-61
2023/09/11 03:39:11;;;;;;;25.58;20.85;;;19.20;99.90;;;;;;4985472;28;20511;-60
2023/09/11 03:41:36;;;;;;;29.77;21.88;;;19.30;99.90;;;;;;4984032;28;20046;-61
2023/09/11 03:44:02;;;;;;;26.67;21.05;;;19.30;99.90;;;;;;4981442;28;20046;-59
2023/09/11 03:46:28;;;;;;;24.48;20.75;;;19.20;99.90;;;;;;4984737;28;20049;-61
2023/09/11 03:48:53;;;;;;;28.17;21.63;;;19.20;99.90;;;;;;4984974;28;20093;-58
2023/09/11 03:51:19;;;;;;;28.50;21.45;;;19.20;99.90;;;;;;4983915;28;20104;-60
2023/09/11 03:53:45;;;;;;;27.52;21.85;;;19.20;99.90;;;;;;4985068;28;20045;-55
2023/09/11 03:56:12;;;;;;;28.85;21.73;;;19.20;99.90;;;;;;4992484;28;20060;-58
2023/09/11 03:58:38;;;;;;;27.13;20.83;;;19.20;99.90;;;;;;4986854;28;20109;-58
2023/09/11 04:01:04;;;;;;;26.80;21.60;;;19.20;99.90;;;;;;4984231;28;20077;-59
2023/09/11 04:03:30;;;;;;;25.25;21.35;;;19.20;99.90;;;;;;4984251;28;20087;-55
2023/09/11 04:05:55;;;;;;;28.70;21.23;;;19.20;99.90;;;;;;4984040;28;20051;-60
2023/09/11 04:08:21;;;;;;;27.00;20.77;;;19.10;99.90;;;;;;4984513;28;20082;-61
2023/09/11 04:10:47;;;;;;;26.63;21.83;;;19.20;99.90;;;;;;4983951;28;20598;-56
2023/09/11 04:13:13;;;;;;;27.90;22.25;;;19.20;99.90;;;;;;4983505;28;20621;-61
2023/09/11 04:15:39;;;;;;;33.85;21.70;;;19.20;99.90;;;;;;4984358;28;20144;-56
2023/09/11 04:18:05;;;;;;;26.27;21.98;;;19.20;99.90;;;;;;4983957;28;20160;-60
2023/09/11 04:20:33;;;;;;;29.00;21.92;;;19.20;99.90;;;;;;4983578;28;20532;-57
2023/09/11 04:23:02;;;;;;;25.35;21.45;;;19.20;99.90;;;;;;4984069;28;20093;-58
2023/09/11 04:25:28;;;;;;;26.08;21.58;;;19.20;99.90;;;;;;4983759;28;20050;-58
2023/09/11 04:27:54;;;;;;;26.75;21.58;;;19.10;99.90;;;;;;4982495;28;20039;-59
2023/09/11 04:30:20;;;;;;;28.20;21.38;;;19.20;99.90;;;;;;4983924;28;20046;-60
2023/09/11 04:32:45;;;;;;;29.90;22.75;;;19.20;99.90;;;;;;4984349;28;20121;-59
2023/09/11 04:35:11;;;;;;;28.83;21.92;;;19.20;99.90;;;;;;4983535;28;20050;-61
2023/09/11 04:37:37;;;;;;;29.88;21.40;;;19.20;99.90;;;;;;4984805;28;20116;-60
2023/09/11 04:40:05;;;;;;;28.15;21.58;;;19.20;99.90;;;;;;4984230;28;20404;-58
2023/09/11 04:42:31;;;;;;;29.83;21.23;;;19.20;99.90;;;;;;4982431;28;20148;-60
2023/09/11 04:44:58;;;;;;;26.90;22.25;;;19.20;99.90;;;;;;4983276;28;20081;-58
2023/09/11 04:47:25;;;;;;;30.70;22.70;;;19.20;99.90;;;;;;4982779;28;20054;-60
2023/09/11 04:49:51;;;;;;;28.65;22.30;;;19.20;99.90;;;;;;4982574;28;20039;-60
2023/09/11 04:52:17;;;;;;;27.42;21.48;;;19.30;99.90;;;;;;4982738;28;20038;-59
2023/09/11 04:54:42;;;;;;;27.73;22.13;;;19.20;99.90;;;;;;4999624;28;20061;-61
2023/09/11 04:57:08;;;;;;;27.40;22.27;;;19.20;99.90;;;;;;4995298;28;20477;-57
2023/09/11 04:59:34;;;;;;;26.95;20.67;;;19.20;99.90;;;;;;4982359;28;20042;-60
2023/09/11 05:01:59;;;;;;;32.15;21.58;;;19.20;99.90;;;;;;4982679;28;20042;-56
2023/09/11 05:04:25;;;;;;;28.52;22.00;;;19.20;99.90;;;;;;4983230;28;20045;-59
2023/09/11 05:06:50;;;;;;;27.63;20.98;;;19.20;99.90;;;;;;4983487;28;20050;-55
2023/09/11 05:09:16;;;;;;;29.92;21.75;;;19.20;99.90;;;;;;4982575;28;20073;-60
2023/09/11 05:11:42;;;;;;;30.75;21.08;;;19.10;99.90;;;;;;4983776;28;20701;-58
2023/09/11 05:14:07;;;;;;;30.20;21.58;;;19.20;99.90;;;;;;4997922;28;20046;-61
2023/09/11 05:16:33;;;;;;;29.75;20.92;;;19.10;99.90;;;;;;4983577;28;20077;-58
2023/09/11 05:18:59;;;;;;;30.02;20.10;;;19.10;99.90;;;;;;4983153;28;20048;-61
2023/09/11 05:21:25;;;;;;;28.13;20.73;;;19.20;99.90;;;;;;4982978;28;20130;-58
2023/09/11 05:23:51;;;;;;;30.53;19.97;;;19.20;99.90;;;;;;4983046;28;20068;-60
2023/09/11 05:26:16;;;;;;;33.95;20.40;;;19.30;99.90;;;;;;4983007;28;20761;-58
2023/09/11 05:28:42;;;;;;;27.98;20.65;;;19.20;99.90;;;;;;4981418;28;20046;-61
2023/09/11 05:31:08;;;;;;;27.15;20.35;;;19.20;99.90;;;;;;4982445;28;20455;-59
2023/09/11 05:33:34;;;;;;;24.05;20.05;;;19.30;99.90;;;;;;4987053;28;20046;-59
2023/09/11 05:36:01;;;;;;;27.77;20.58;;;19.30;99.90;;;;;;4982151;28;20088;-60
2023/09/11 05:38:26;;;;;;;28.02;19.80;;;19.30;99.90;;;;;;5003227;28;20050;-58
2023/09/11 05:40:52;;;;;;;27.85;20.33;;;19.30;99.90;;;;;;5001506;28;20069;-59
2023/09/11 05:43:18;;;;;;;25.88;20.60;;;19.30;99.90;;;;;;5001508;28;20380;-59
2023/09/11 05:45:43;;;;;;;31.65;21.35;;;19.40;99.90;;;;;;5001691;28;20077;-60
2023/09/11 05:48:11;;;;;;;25.67;19.70;;;19.40;99.90;;;;;;5000789;28;20401;-58
2023/09/11 05:50:38;;;;;;;29.70;19.73;;;19.50;99.90;;;;;;5002108;28;20514;-61
2023/09/11 05:53:06;;;;;;;27.35;19.33;;;19.50;99.90;;;;;;5001499;28;20057;-59
2023/09/11 05:55:33;;;;;;;31.13;19.88;;;19.50;99.90;;;;;;4996919;28;20046;-56
2023/09/11 05:57:59;;;;;;;31.48;19.50;;;19.60;99.90;;;;;;4990206;28;20069;-59
2023/09/11 06:00:26;;;;;;;26.83;19.38;;;19.60;99.90;;;;;;4983014;28;20049;-56
2023/09/11 06:02:52;;;;;;;25.38;18.17;;;19.70;99.90;;;;;;4984353;28;20046;-55
2023/09/11 06:05:18;;;;;;;27.58;19.05;;;19.70;99.90;;;;;;4986029;28;20100;-59
2023/09/11 06:07:44;;;;;;;26.45;18.23;;;19.80;99.90;;;;;;4986317;28;20050;-55
2023/09/11 06:10:11;;;;;;;27.30;18.83;;;19.90;99.90;;;;;;4985189;28;20181;-59
2023/09/11 06:12:37;;;;;;;27.48;18.92;;;19.90;99.90;;;;;;4985582;28;20061;-58
2023/09/11 06:15:04;;;;;;;26.63;17.83;;;19.90;99.90;;;;;;4986655;28;20061;-60
2023/09/11 06:17:30;;;;;;;29.83;19.02;;;20.00;99.90;;;;;;4986375;28;20069;-58
2023/09/11 06:19:55;;;;;;;28.13;18.38;;;20.10;99.90;;;;;;4985997;28;20046;-60
2023/09/11 06:22:21;;;;;;;24.83;18.00;;;20.10;99.90;;;;;;5001352;28;20057;-56
2023/09/11 06:24:47;;;;;;;25.23;18.38;;;20.20;99.90;;;;;;4995880;28;20042;-57
2023/09/11 06:27:13;;;;;;;29.13;17.77;;;20.20;99.90;;;;;;5004052;28;20381;-57
2023/09/11 06:29:40;;;;;;;29.08;17.48;;;20.30;99.90;;;;;;5005389;28;20089;-60
2023/09/11 06:32:06;;;;;;;27.38;16.65;;;20.40;99.90;;;;;;5003372;28;20058;-59
2023/09/11 06:34:32;;;;;;;24.52;16.70;;;20.50;99.90;;;;;;5005439;28;20112;-59
2023/09/11 06:36:58;;;;;;;33.50;16.70;;;20.60;99.90;;;;;;5004136;28;20065;-57
2023/09/11 06:39:24;;;;;;;25.02;16.20;;;20.60;99.90;;;;;;5005123;28;20044;-56
2023/09/11 06:41:49;;;;;;;28.02;16.25;;;20.70;99.90;;;;;;5004303;28;20049;-60
2023/09/11 06:44:15;;;;;;;29.13;16.10;;;21.00;99.90;;;;;;5004298;28;20034;-54
2023/09/11 06:46:41;;;;;;;26.95;15.63;;;21.30;99.90;;;;;;5004805;28;20050;-57
2023/09/11 06:49:07;;;;;;;30.60;15.77;;;21.80;99.90;;;;;;5005897;28;20101;-58
2023/09/11 06:51:33;;;;;;;25.20;15.68;;;22.20;99.90;;;;;;5004958;28;20459;-59
2023/09/11 06:53:59;;;;;;;24.35;14.80;;;22.50;99.90;;;;;;4996814;28;20550;-60
2023/09/11 06:56:24;;;;;;;25.23;14.40;;;22.70;99.90;;;;;;4991457;28;20423;-61
2023/09/11 06:58:50;;;;;;;27.10;14.00;;;22.90;99.90;;;;;;4995355;28;20112;-59
2023/09/11 07:01:15;;;;;;;25.38;14.48;;;23.00;99.90;;;;;;4992192;28;20038;-58
2023/09/11 07:03:41;;;;;;;25.38;14.32;;;23.20;99.90;;;;;;4985685;28;20134;-61
2023/09/11 07:06:07;;;;;;;23.75;14.05;;;23.40;99.90;;;;;;4984910;28;20488;-60
2023/09/11 07:08:33;;;;;;;26.05;13.90;;;23.50;99.90;;;;;;4985321;28;20042;-60
2023/09/11 07:10:58;;;;;;;30.63;14.27;;;23.70;99.90;;;;;;4984620;28;20804;-58
2023/09/11 07:13:24;;;;;;;29.02;13.95;;;23.80;99.90;;;;;;4982915;28;20130;-57
2023/09/11 07:16:00;;;;;;;21.17;13.55;;;23.80;99.90;;;;;;4985545;28;20508;-58
2023/09/11 07:18:26;;;;;;;21.77;13.68;;;23.80;99.90;;;;;;4985467;28;20078;-55
2023/09/11 07:20:52;;;;;;;22.05;13.93;;;24.00;99.90;;;;;;4985070;28;20081;-61
2023/09/11 07:23:23;;;;;;;24.95;14.00;;;23.90;99.90;;;;;;4984962;28;20046;-59
2023/09/11 07:25:52;;;;;;;25.83;14.20;;;23.90;99.90;;;;;;4986188;28;20081;-58
2023/09/11 07:28:18;;;;;;;19.88;14.48;;;23.80;99.90;;;;;;4984614;28;20038;-61
2023/09/11 07:30:44;;;;;;;28.33;15.23;;;23.60;99.90;;;;;;4967329;28;20424;-61
2023/09/11 07:33:11;;;;;;;31.38;14.98;;;23.20;99.90;;;;;;4984952;28;20116;-58
2023/09/11 07:35:37;;;;;;;29.80;14.43;;;23.10;99.90;;;;;;4989489;28;20042;-58
2023/09/11 07:38:02;;;;;;;25.80;14.60;;;23.00;99.90;;;;;;4983816;28;20797;-59
2023/09/11 07:40:28;;;;;;;29.63;15.35;;;22.90;99.90;;;;;;4999138;28;20050;-61
2023/09/11 07:42:54;;;;;;;26.80;15.75;;;22.90;99.90;;;;;;4998215;28;20507;-59
2023/09/11 07:45:21;;;;;;;24.50;14.40;;;22.90;99.90;;;;;;4984989;28;20378;-61
2023/09/11 07:47:46;;;;;;;27.90;15.02;;;23.00;99.90;;;;;;4992925;28;20081;-60
2023/09/11 07:50:12;;;;;;;23.42;13.95;;;23.00;99.90;;;;;;4984588;28;20089;-55
2023/09/11 07:52:38;;;;;;;28.25;14.85;;;23.00;99.90;;;;;;4984659;28;20126;-56
2023/09/11 07:55:04;;;;;;;22.15;13.68;;;23.00;99.90;;;;;;4986904;28;20473;-60
2023/09/11 07:57:33;;;;;;;23.77;14.05;;;23.00;99.90;;;;;;4986879;28;20042;-62
2023/09/11 08:00:04;;;;;;;30.83;15.10;;;23.20;99.90;;;;;;4993620;28;20042;-56
2023/09/11 08:02:30;;;;;;;24.77;13.82;;;23.20;99.90;;;;;;4984652;28;20035;-61
2023/09/11 08:04:55;;;;;;;25.50;13.82;;;23.40;99.90;;;;;;4984314;28;20049;-61
2023/09/11 08:07:21;;;;;;;25.98;14.40;;;23.40;99.90;;;;;;4994969;28;20476;-59
2023/09/11 08:09:47;;;;;;;22.67;13.55;;;23.50;99.90;;;;;;5003950;28;20111;-64
2023/09/11 08:12:12;;;;;;;26.02;13.68;;;23.60;99.90;;;;;;5003456;28;20396;-57
2023/09/11 08:14:38;;;;;;;29.77;13.55;;;23.70;99.90;;;;;;5004053;28;20061;-62
2023/09/11 08:17:04;;;;;;;21.58;12.68;;;23.80;99.90;;;;;;5003192;28;20037;-61
2023/09/11 08:19:29;;;;;;;23.25;13.95;;;23.90;99.90;;;;;;5002326;28;20043;-63
2023/09/11 08:21:55;;;;;;;32.55;14.75;;;24.00;99.90;;;;;;5003058;28;20722;-62
2023/09/11 08:24:22;;;;;;;22.70;13.15;;;24.10;99.90;;;;;;4997895;28;20050;-60
2023/09/11 08:26:48;;;;;;;31.85;14.38;;;24.20;99.90;;;;;;4993493;28;20080;-57
2023/09/11 08:29:15;;;;;;;21.95;13.63;;;24.40;99.90;;;;;;4990672;28;20078;-61
2023/09/11 08:31:41;;;;;;;25.80;13.43;;;24.50;99.90;;;;;;4991055;28;20038;-63
2023/09/11 08:34:07;;;;;;;24.77;13.52;;;24.60;99.90;;;;;;4999904;28;20042;-59
2023/09/11 08:36:32;;;;;;;27.98;13.35;;;24.70;99.90;;;;;;5003279;28;20052;-64
2023/09/11 08:38:58;;;;;;;21.63;12.45;;;24.80;99.90;;;;;;5003260;28;20738;-62
2023/09/11 08:41:25;;;;;;;24.45;13.18;;;24.90;99.90;;;;;;5002968;28;20447;-59
2023/09/11 08:43:51;;;;;;;20.60;12.25;;;25.10;99.90;;;;;;5002601;28;20104;-58
2023/09/11 08:46:17;;;;;;;23.48;12.60;;;25.20;99.90;;;;;;5002225;28;20141;-64
2023/09/11 08:48:44;;;;;;;23.25;12.85;;;25.40;99.90;;;;;;5002665;28;20057;-62
2023/09/11 08:51:14;;;;;;;21.40;12.73;;;25.50;99.90;;;;;;5003583;28;20045;-62
2023/09/11 08:53:42;;;;;;;21.27;11.70;;;25.70;99.90;;;;;;5002438;28;20046;-64
2023/09/11 08:56:09;;;;;;;25.02;13.20;;;25.80;99.90;;;;;;4996701;28;20497;-61
2023/09/11 08:58:36;;;;;;;22.67;11.95;;;26.00;99.90;;;;;;4985723;28;20081;-61
2023/09/11 09:01:02;;;;;;;24.05;11.55;;;26.50;99.90;;;;;;4982358;28;20048;-63
2023/09/11 09:03:29;;;;;;;20.52;11.52;;;26.80;99.90;;;;;;4983425;28;20201;-60
2023/09/11 09:05:57;;;;;;;22.67;11.32;;;27.10;99.90;;;;;;4981473;28;20051;-59
2023/09/11 09:08:24;;;;;;;20.15;11.23;;;27.40;99.90;;;;;;4983183;28;20452;-62
2023/09/11 09:10:51;;;;;;;23.38;10.95;;;27.60;99.90;;;;;;4983041;28;20042;-62
2023/09/11 09:13:17;;;;;;;25.80;10.75;;;27.80;99.90;;;;;;4980575;28;20085;-63
2023/09/11 09:15:44;;;;;;;24.15;10.70;;;27.90;99.90;;;;;;4998554;28;20053;-63
2023/09/11 09:18:10;;;;;;;20.98;10.07;;;28.00;99.90;;;;;;4994764;28;20046;-61
2023/09/11 09:20:37;;;;;;;23.75;10.07;;;27.90;99.30;;;;;;4999836;28;20038;-63
2023/09/11 09:23:03;;;;;;;19.23;9.75;;;28.00;99.30;;;;;;4993540;28;20046;-59
2023/09/11 09:25:30;;;;;;;16.10;9.23;;;28.00;99.20;;;;;;4994718;28;20520;-65
2023/09/11 09:27:57;;;;;;;19.50;9.93;;;28.20;99.40;;;;;;4982028;28;20141;-59
2023/09/11 09:30:24;;;;;;;21.30;9.80;;;28.30;99.10;;;;;;4985589;28;20043;-63
2023/09/11 09:32:52;;;;;;;20.95;9.43;;;28.50;98.80;;;;;;4982980;28;20053;-62
2023/09/11 09:35:20;;;;;;;19.75;9.82;;;28.50;98.50;;;;;;4987880;28;20088;-60
2023/09/11 09:37:51;;;;;;;16.63;8.93;;;28.60;98.80;;;;;;5005585;28;20088;-64
2023/09/11 09:40:37;;;;;;;18.25;8.52;;;28.70;98.40;;;;;;5005837;28;20707;-64
2023/09/11 09:43:05;;;;;;;18.13;9.98;;;28.80;98.50;;;;;;5004864;28;20042;-60
2023/09/11 09:45:39;;;;;;;22.08;8.73;;;28.90;98.40;;;;;;4993864;28;20048;-60
2023/09/11 09:48:14;;;;;;;19.58;8.65;;;29.00;97.90;;;;;;4998402;28;20584;-61
2023/09/11 09:51:01;;;;;;;19.17;8.48;;;29.10;97.80;;;;;;4986560;28;20047;-61
2023/09/11 09:53:31;;;;;;;18.75;8.70;;;29.30;96.50;;;;;;4986239;28;20042;-58
2023/09/11 09:56:01;;;;;;;21.95;8.15;;;29.20;96.90;;;;;;4993307;28;20050;-61
2023/09/11 09:58:30;;;;;;;21.20;8.27;;;29.20;97.20;;;;;;4990165;28;20100;-63
2023/09/11 10:01:08;;;;;;;18.75;7.78;;;29.20;96.90;;;;;;4985112;28;20054;-65
2023/09/11 10:03:42;;;;;;;15.65;7.72;;;29.30;96.80;;;;;;4986944;28;20042;-62
2023/09/11 10:06:18;;;;;;;14.75;7.90;;;29.50;96.50;;;;;;4985909;28;20042;-64
2023/09/11 10:08:45;;;;;;;16.10;7.78;;;29.70;96.40;;;;;;4992127;28;20046;-64
2023/09/11 10:11:28;;;;;;;14.13;7.80;;;29.70;96.80;;;;;;5000059;28;20042;-60
2023/09/11 10:13:57;;;;;;;18.92;8.00;;;29.90;95.90;;;;;;4989214;28;20058;-61
2023/09/11 10:16:28;;;;;;;19.05;7.75;;;29.90;95.80;;;;;;4993334;28;20065;-62
2023/09/11 10:18:55;;;;;;;22.02;7.80;;;30.00;95.50;;;;;;4996085;28;20117;-65
2023/09/11 10:21:21;;;;;;;18.77;7.15;;;29.90;94.90;;;;;;4998125;28;20081;-61
2023/09/11 10:23:47;;;;;;;13.98;7.00;;;29.90;94.90;;;;;;4992034;28;20048;-64
2023/09/11 10:26:22;;;;;;;14.88;7.70;;;29.90;95.10;;;;;;4989642;28;20133;-58
2023/09/11 10:28:51;;;;;;;13.95;7.63;;;29.90;95.40;;;;;;4985756;28;20074;-65
2023/09/11 10:31:19;;;;;;;16.05;7.88;;;30.00;95.10;;;;;;4986220;28;20101;-63
2023/09/11 10:33:48;;;;;;;18.75;7.07;;;30.00;95.00;;;;;;4984077;28;20122;-65
2023/09/11 10:36:14;;;;;;;13.50;7.57;;;30.10;94.90;;;;;;4986717;28;20049;-61
2023/09/11 10:38:43;;;;;;;17.63;7.70;;;30.20;94.70;;;;;;4985698;28;20125;-66
2023/09/11 10:41:09;;;;;;;11.00;6.45;;;30.20;95.00;;;;;;5001356;28;20763;-62
2023/09/11 10:43:35;;;;;;;14.40;6.60;;;30.30;94.40;;;;;;5003927;28;20053;-63
2023/09/11 10:46:19;;;;;;;18.60;6.93;;;30.40;93.60;;;;;;5005793;28;20107;-60
2023/09/11 10:48:45;;;;;;;11.48;6.63;;;30.50;94.00;;;;;;5003693;28;20050;-65
2023/09/11 10:51:13;;;;;;;13.80;6.50;;;30.50;93.60;;;;;;5004680;28;20052;-59
2023/09/11 10:53:39;;;;;;;22.13;7.40;;;30.50;93.20;;;;;;5004549;28;20041;-63
2023/09/11 10:56:05;;;;;;;15.80;7.20;;;30.50;93.40;;;;;;4998675;28;20112;-64
2023/09/11 10:58:30;;;;;;;16.35;6.63;;;30.50;93.10;;;;;;4988823;28;20053;-56
2023/09/11 11:00:57;;;;;;;13.27;7.10;;;30.50;93.60;;;;;;5005130;28;20052;-65
2023/09/11 11:03:30;;;;;;;14.90;7.20;;;30.60;93.80;;;;;;5005183;28;20046;-61
2023/09/11 11:06:00;;;;;;;15.77;7.53;;;30.70;93.50;;;;;;4985011;28;20042;-65
2023/09/11 11:08:30;;;;;;;14.10;6.20;;;30.60;93.10;;;;;;4987016;28;20042;-61
2023/09/11 11:10:57;;;;;;;18.00;7.82;;;30.60;93.70;;;;;;4993093;28;20397;-61
2023/09/11 11:13:23;;;;;;;11.85;7.30;;;30.70;93.30;;;;;;4994328;28;20078;-66
2023/09/11 11:16:08;;;;;;;11.85;7.55;;;30.70;93.40;;;;;;4985264;28;20125;-61
2023/09/11 11:18:35;;;;;;;17.45;7.78;;;30.60;93.90;;;;;;4984551;28;20065;-64
2023/09/11 11:21:00;;;;;;;12.93;7.38;;;30.70;93.60;;;;;;4992153;28;20045;-64
2023/09/11 11:23:51;;;;;;;14.70;7.65;;;30.70;93.40;;;;;;5004504;28;20042;-59
2023/09/11 11:26:17;;;;;;;16.13;7.53;;;30.70;93.50;;;;;;5002166;28;20077;-60
2023/09/11 11:28:45;;;;;;;14.00;6.70;;;30.70;92.60;;;;;;4999449;28;20096;-65
2023/09/11 11:31:21;;;;;;;12.43;7.32;;;30.80;92.50;;;;;;4996205;28;20065;-59
2023/09/11 11:33:48;;;;;;;13.32;7.35;;;30.80;92.30;;;;;;4994889;28;20068;-64
2023/09/11 11:36:17;;;;;;;12.43;7.75;;;30.70;92.60;;;;;;4987725;28;20136;-61
2023/09/11 11:38:43;;;;;;;17.40;7.55;;;30.70;93.00;;;;;;4994512;28;20091;-58
2023/09/11 11:41:10;;;;;;;14.98;8.57;;;30.50;92.60;;;;;;4993292;28;20043;-60
2023/09/11 11:43:36;;;;;;;15.02;7.65;;;30.50;92.80;;;;;;4983962;28;20078;-62
2023/09/11 11:46:05;;;;;;;11.35;7.90;;;30.60;92.90;;;;;;4984583;28;20039;-59
2023/09/11 11:48:33;;;;;;;12.52;7.75;;;30.60;92.60;;;;;;4983592;28;20400;-61
2023/09/11 11:50:59;;;;;;;9.73;7.00;;;30.60;92.10;;;;;;4996807;28;20053;-60
2023/09/11 11:53:24;;;;;;;14.60;7.95;;;30.50;92.60;;;;;;4996182;28;20042;-60
2023/09/11 11:55:52;;;;;;;10.75;7.75;;;30.60;92.80;;;;;;4991113;28;20053;-60
2023/09/11 11:58:17;;;;;;;11.18;7.60;;;30.70;92.90;;;;;;4983314;28;20050;-61
2023/09/11 12:00:58;;;;;;;10.80;7.20;;;30.70;92.50;;;;;;4986426;28;20061;-59
2023/09/11 12:03:25;;;;;;;13.77;7.60;;;30.80;92.70;;;;;;4984712;28;20511;-57
2023/09/11 12:05:51;;;;;;;17.23;7.70;;;30.90;92.50;;;;;;5002791;28;20037;-62
2023/09/11 12:08:17;;;;;;;11.07;7.85;;;31.00;92.30;;;;;;5003522;28;20129;-58
2023/09/11 12:10:44;;;;;;;15.40;7.97;;;30.90;92.70;;;;;;5002699;28;20487;-59
2023/09/11 12:13:13;;;;;;;14.25;8.32;;;31.00;92.60;;;;;;4993265;28;20059;-57
2023/09/11 12:15:39;;;;;;;12.68;8.63;;;31.00;92.90;;;;;;4985108;28;20938;-61
2023/09/11 12:18:05;;;;;;;11.57;7.60;;;31.00;92.20;;;;;;4984867;28;20397;-55
2023/09/11 12:20:31;;;;;;;13.15;7.45;;;31.10;92.60;;;;;;4984399;28;20034;-59
2023/09/11 12:23:01;;;;;;;15.38;8.05;;;31.10;92.60;;;;;;4984072;28;20504;-60
2023/09/11 12:25:27;;;;;;;11.52;7.50;;;31.20;92.50;;;;;;4984768;28;20077;-56
2023/09/11 12:27:53;;;;;;;20.98;7.97;;;31.30;92.50;;;;;;4986625;28;20678;-57